sensor_id;sensor_type;location;lat;lon;timestamp;temperature;humidity
24338;DHT22;12457;50.832;4.346;2023-08-12T00:00:19;21.40;99.90
24338;DHT22;12457;50.832;4.346;2023-08-12T00:02:45;21.50;99.90
24338;DHT22;12457;50.832;4.346;2023-08-12T00:05:12;21.50;99.90
24338;DHT22;12457;50.832;4.346;2023-08-12T00:07:38;21.50;99.90
24338;DHT22;12457;50.832;4.346;2023-08-12T00:10:07;21.50;99.90
24338;DHT22;12457;50.832;4.346;2023-08-12T00:12:36;21.50;99.90
24338;DHT22;12457;50.832;4.346;2023-08-12T00:15:04;21.50;99.90
24338;DHT22;12457;50.832;4.346;2023-08-12T00:17:32;21.60;99.90
24338;DHT22;12457;50.832;4.346;2023-08-12T00:19:58;21.70;99.90
24338;DHT22;12457;50.832;4.346;2023-08-12T00:22:24;21.60;99.90
24338;DHT22;12457;50.832;4.346;2023-08-12T00:24:50;21.50;99.90
24338;DHT22;12457;50.832;4.346;2023-08-12T00:27:17;21.50;99.90
24338;DHT22;12457;50.832;4.346;2023-08-12T00:29:43;21.40;99.90
24338;DHT22;12457;50.832;4.346;2023-08-12T00:32:09;21.40;99.90
24338;DHT22;12457;50.832;4.346;2023-08-12T00:34:35;21.30;99.90
24338;DHT22;12457;50.832;4.346;2023-08-12T00:37:01;21.30;99.90
24338;DHT22;12457;50.832;4.346;2023-08-12T00:39:28;21.40;99.90
24338;DHT22;12457;50.832;4.346;2023-08-12T00:41:54;21.50;99.90
24338;DHT22;12457;50.832;4.346;2023-08-12T00:44:20;21.50;99.90
24338;DHT22;12457;50.832;4.346;2023-08-12T00:46:45;21.40;99.90
24338;DHT22;12457;50.832;4.346;2023-08-12T00:49:11;21.40;99.90
24338;DHT22;12457;50.832;4.346;2023-08-12T00:51:42;21.40;99.90
24338;DHT22;12457;50.832;4.346;2023-08-12T00:54:13;21.30;99.90
24338;DHT22;12457;50.832;4.346;2023-08-12T00:56:40;21.30;99.90
24338;DHT22;12457;50.832;4.346;2023-08-12T00:59:07;21.30;99.90
24338;DHT22;12457;50.832;4.346;2023-08-12T01:01:35;21.30;99.90
24338;DHT22;12457;50.832;4.346;2023-08-12T01:04:01;21.30;99.90
24338;DHT22;12457;50.832;4.346;2023-08-12T01:06:27;21.20;99.90
24338;DHT22;12457;50.832;4.346;2023-08-12T01:08:53;21.10;99.90
24338;DHT22;12457;50.832;4.346;2023-08-12T01:14:06;21.10;99.90
24338;DHT22;12457;50.832;4.346;2023-08-12T01:16:37;21.10;99.90
24338;DHT22;12457;50.832;4.346;2023-08-12T01:19:06;21.10;99.90
24338;DHT22;12457;50.832;4.346;2023-08-12T01:21:37;21.10;99.90
24338;DHT22;12457;50.832;4.346;2023-08-12T01:24:06;21.00;99.90
24338;DHT22;12457;50.832;4.346;2023-08-12T01:26:32;20.90;99.90
24338;DHT22;12457;50.832;4.346;2023-08-12T01:28:58;20.90;99.90
24338;DHT22;12457;50.832;4.346;2023-08-12T01:31:45;20.90;99.90
24338;DHT22;12457;50.832;4.346;2023-08-12T01:34:25;20.90;99.90
24338;DHT22;12457;50.832;4.346;2023-08-12T01:36:55;20.90;99.90
24338;DHT22;12457;50.832;4.346;2023-08-12T01:39:24;20.80;99.90
24338;DHT22;12457;50.832;4.346;2023-08-12T01:41:52;20.80;99.90
24338;DHT22;12457;50.832;4.346;2023-08-12T01:44:19;20.80;99.90
24338;DHT22;12457;50.832;4.346;2023-08-12T01:46:44;20.80;99.90
24338;DHT22;12457;50.832;4.346;2023-08-12T01:49:10;20.70;99.90
24338;DHT22;12457;50.832;4.346;2023-08-12T01:51:36;20.70;99.90
24338;DHT22;12457;50.832;4.346;2023-08-12T01:54:03;20.70;99.90
24338;DHT22;12457;50.832;4.346;2023-08-12T01:56:30;20.60;99.90
24338;DHT22;12457;50.832;4.346;2023-08-12T01:58:56;20.70;99.90
24338;DHT22;12457;50.832;4.346;2023-08-12T02:01:21;20.70;99.90
24338;DHT22;12457;50.832;4.346;2023-08-12T02:03:47;20.70;99.90
24338;DHT22;12457;50.832;4.346;2023-08-12T02:06:12;20.70;99.90
24338;DHT22;12457;50.832;4.346;2023-08-12T02:08:38;20.70;99.90
24338;DHT22;12457;50.832;4.346;2023-08-12T02:11:04;20.70;99.90
24338;DHT22;12457;50.832;4.346;2023-08-12T02:13:30;20.70;99.90
24338;DHT22;12457;50.832;4.346;2023-08-12T02:15:56;20.70;99.90
24338;DHT22;12457;50.832;4.346;2023-08-12T02:18:22;20.60;99.90
24338;DHT22;12457;50.832;4.346;2023-08-12T02:20:48;20.60;99.90
24338;DHT22;12457;50.832;4.346;2023-08-12T02:23:14;20.60;99.90
24338;DHT22;12457;50.832;4.346;2023-08-12T02:25:39;20.60;99.90
24338;DHT22;12457;50.832;4.346;2023-08-12T02:28:05;20.70;99.90
24338;DHT22;12457;50.832;4.346;2023-08-12T02:30:31;20.70;99.90
24338;DHT22;12457;50.832;4.346;2023-08-12T02:33:03;20.70;99.90
24338;DHT22;12457;50.832;4.346;2023-08-12T02:35:28;20.70;99.90
24338;DHT22;12457;50.832;4.346;2023-08-12T02:37:54;20.80;99.90
24338;DHT22;12457;50.832;4.346;2023-08-12T02:40:20;20.80;99.90
24338;DHT22;12457;50.832;4.346;2023-08-12T02:42:45;20.70;99.90
24338;DHT22;12457;50.832;4.346;2023-08-12T02:45:11;20.70;99.90
24338;DHT22;12457;50.832;4.346;2023-08-12T02:47:37;20.70;99.90
24338;DHT22;12457;50.832;4.346;2023-08-12T02:50:03;20.70;99.90
24338;DHT22;12457;50.832;4.346;2023-08-12T02:52:28;20.60;99.90
24338;DHT22;12457;50.832;4.346;2023-08-12T02:54:54;20.50;99.90
24338;DHT22;12457;50.832;4.346;2023-08-12T02:57:21;20.50;99.90
24338;DHT22;12457;50.832;4.346;2023-08-12T02:59:47;20.50;99.90
24338;DHT22;12457;50.832;4.346;2023-08-12T03:02:13;20.50;99.90
24338;DHT22;12457;50.832;4.346;2023-08-12T03:04:38;20.50;99.90
24338;DHT22;12457;50.832;4.346;2023-08-12T03:07:04;20.50;99.90
24338;DHT22;12457;50.832;4.346;2023-08-12T03:09:30;20.60;99.90
24338;DHT22;12457;50.832;4.346;2023-08-12T03:11:56;20.60;99.90
24338;DHT22;12457;50.832;4.346;2023-08-12T03:14:22;20.60;99.90
24338;DHT22;12457;50.832;4.346;2023-08-12T03:16:47;20.60;99.90
24338;DHT22;12457;50.832;4.346;2023-08-12T03:19:13;20.50;99.90
24338;DHT22;12457;50.832;4.346;2023-08-12T03:21:39;20.50;99.90
24338;DHT22;12457;50.832;4.346;2023-08-12T03:24:05;20.60;99.90
24338;DHT22;12457;50.832;4.346;2023-08-12T03:26:30;20.60;99.90
24338;DHT22;12457;50.832;4.346;2023-08-12T03:28:56;20.60;99.90
24338;DHT22;12457;50.832;4.346;2023-08-12T03:31:22;20.60;99.90
24338;DHT22;12457;50.832;4.346;2023-08-12T03:33:47;20.60;99.90
24338;DHT22;12457;50.832;4.346;2023-08-12T03:36:13;20.60;99.90
24338;DHT22;12457;50.832;4.346;2023-08-12T03:38:39;20.60;99.90
24338;DHT22;12457;50.832;4.346;2023-08-12T03:41:05;20.40;99.90
24338;DHT22;12457;50.832;4.346;2023-08-12T03:43:31;20.40;99.90
24338;DHT22;12457;50.832;4.346;2023-08-12T03:45:59;20.30;99.90
24338;DHT22;12457;50.832;4.346;2023-08-12T03:48:24;20.20;99.90
24338;DHT22;12457;50.832;4.346;2023-08-12T03:50:50;20.20;99.90
24338;DHT22;12457;50.832;4.346;2023-08-12T03:53:16;20.10;99.90
24338;DHT22;12457;50.832;4.346;2023-08-12T03:55:42;20.10;99.90
24338;DHT22;12457;50.832;4.346;2023-08-12T03:58:08;20.10;99.90
24338;DHT22;12457;50.832;4.346;2023-08-12T04:00:34;20.10;99.90
24338;DHT22;12457;50.832;4.346;2023-08-12T04:03:00;20.00;99.90
24338;DHT22;12457;50.832;4.346;2023-08-12T04:05:26;20.00;99.90
24338;DHT22;12457;50.832;4.346;2023-08-12T04:07:52;20.00;99.90
24338;DHT22;12457;50.832;4.346;2023-08-12T04:10:18;20.00;99.90
24338;DHT22;12457;50.832;4.346;2023-08-12T04:12:44;20.00;99.90
24338;DHT22;12457;50.832;4.346;2023-08-12T04:15:10;20.00;99.90
24338;DHT22;12457;50.832;4.346;2023-08-12T04:17:36;20.10;99.90
24338;DHT22;12457;50.832;4.346;2023-08-12T04:20:02;20.10;99.90
24338;DHT22;12457;50.832;4.346;2023-08-12T04:22:31;20.10;99.90
24338;DHT22;12457;50.832;4.346;2023-08-12T04:24:57;20.20;99.90
24338;DHT22;12457;50.832;4.346;2023-08-12T04:27:22;20.20;99.90
24338;DHT22;12457;50.832;4.346;2023-08-12T04:29:48;20.10;99.90
24338;DHT22;12457;50.832;4.346;2023-08-12T04:32:13;20.20;99.90
24338;DHT22;12457;50.832;4.346;2023-08-12T04:34:39;20.10;99.90
24338;DHT22;12457;50.832;4.346;2023-08-12T04:37:05;20.10;99.90
24338;DHT22;12457;50.832;4.346;2023-08-12T04:39:30;20.20;99.90
24338;DHT22;12457;50.832;4.346;2023-08-12T04:41:58;20.20;99.90
24338;DHT22;12457;50.832;4.346;2023-08-12T04:44:23;20.20;99.90
24338;DHT22;12457;50.832;4.346;2023-08-12T04:46:49;20.20;99.90
24338;DHT22;12457;50.832;4.346;2023-08-12T04:49:16;20.20;99.90
24338;DHT22;12457;50.832;4.346;2023-08-12T04:51:41;20.10;99.90
24338;DHT22;12457;50.832;4.346;2023-08-12T04:54:07;20.20;99.90
24338;DHT22;12457;50.832;4.346;2023-08-12T04:56:33;20.20;99.90
24338;DHT22;12457;50.832;4.346;2023-08-12T04:58:59;20.30;99.90
24338;DHT22;12457;50.832;4.346;2023-08-12T05:01:24;20.20;99.90
24338;DHT22;12457;50.832;4.346;2023-08-12T05:03:50;20.20;99.90
24338;DHT22;12457;50.832;4.346;2023-08-12T05:06:16;20.20;99.90
24338;DHT22;12457;50.832;4.346;2023-08-12T05:08:41;20.20;99.90
24338;DHT22;12457;50.832;4.346;2023-08-12T05:11:07;20.20;99.90
24338;DHT22;12457;50.832;4.346;2023-08-12T05:13:33;20.20;99.90
24338;DHT22;12457;50.832;4.346;2023-08-12T05:15:58;20.20;99.90
24338;DHT22;12457;50.832;4.346;2023-08-12T05:18:29;20.20;99.90
24338;DHT22;12457;50.832;4.346;2023-08-12T05:20:55;20.20;99.90
24338;DHT22;12457;50.832;4.346;2023-08-12T05:23:22;20.20;99.90
24338;DHT22;12457;50.832;4.346;2023-08-12T05:25:48;20.20;99.90
24338;DHT22;12457;50.832;4.346;2023-08-12T05:28:13;20.20;99.90
24338;DHT22;12457;50.832;4.346;2023-08-12T05:30:39;20.20;99.90
24338;DHT22;12457;50.832;4.346;2023-08-12T05:33:06;20.20;99.90
24338;DHT22;12457;50.832;4.346;2023-08-12T05:35:36;20.20;99.90
24338;DHT22;12457;50.832;4.346;2023-08-12T05:38:02;20.10;99.90
24338;DHT22;12457;50.832;4.346;2023-08-12T05:40:28;20.20;99.90
24338;DHT22;12457;50.832;4.346;2023-08-12T05:42:54;20.20;99.90
24338;DHT22;12457;50.832;4.346;2023-08-12T05:45:19;20.20;99.90
24338;DHT22;12457;50.832;4.346;2023-08-12T05:47:48;20.30;99.90
24338;DHT22;12457;50.832;4.346;2023-08-12T05:50:14;20.20;99.90
24338;DHT22;12457;50.832;4.346;2023-08-12T05:52:39;20.20;99.90
24338;DHT22;12457;50.832;4.346;2023-08-12T05:55:05;20.20;99.90
24338;DHT22;12457;50.832;4.346;2023-08-12T05:57:31;20.20;99.90
24338;DHT22;12457;50.832;4.346;2023-08-12T05:59:57;20.20;99.90
24338;DHT22;12457;50.832;4.346;2023-08-12T06:02:22;20.20;99.90
24338;DHT22;12457;50.832;4.346;2023-08-12T06:04:48;20.20;99.90
24338;DHT22;12457;50.832;4.346;2023-08-12T06:07:14;20.20;99.90
24338;DHT22;12457;50.832;4.346;2023-08-12T06:09:39;20.20;99.90
24338;DHT22;12457;50.832;4.346;2023-08-12T06:12:05;20.20;99.90
24338;DHT22;12457;50.832;4.346;2023-08-12T06:14:31;20.20;99.90
24338;DHT22;12457;50.832;4.346;2023-08-12T06:16:57;20.20;99.90
24338;DHT22;12457;50.832;4.346;2023-08-12T06:19:22;20.20;99.90
24338;DHT22;12457;50.832;4.346;2023-08-12T06:21:48;20.20;99.90
24338;DHT22;12457;50.832;4.346;2023-08-12T06:24:14;20.20;99.90
24338;DHT22;12457;50.832;4.346;2023-08-12T06:26:40;20.20;99.90
24338;DHT22;12457;50.832;4.346;2023-08-12T06:29:06;20.20;99.90
24338;DHT22;12457;50.832;4.346;2023-08-12T06:31:32;20.20;99.90
24338;DHT22;12457;50.832;4.346;2023-08-12T06:33:58;20.30;99.90
24338;DHT22;12457;50.832;4.346;2023-08-12T06:36:23;20.40;99.90
24338;DHT22;12457;50.832;4.346;2023-08-12T06:38:49;20.40;99.90
24338;DHT22;12457;50.832;4.346;2023-08-12T06:41:14;20.40;99.90
24338;DHT22;12457;50.832;4.346;2023-08-12T06:43:40;20.40;99.90
24338;DHT22;12457;50.832;4.346;2023-08-12T06:46:06;20.40;99.90
24338;DHT22;12457;50.832;4.346;2023-08-12T06:48:31;20.40;99.90
24338;DHT22;12457;50.832;4.346;2023-08-12T06:50:57;20.50;99.90
24338;DHT22;12457;50.832;4.346;2023-08-12T06:53:27;20.50;99.90
24338;DHT22;12457;50.832;4.346;2023-08-12T06:55:53;20.60;99.90
24338;DHT22;12457;50.832;4.346;2023-08-12T06:58:19;20.60;99.90
24338;DHT22;12457;50.832;4.346;2023-08-12T07:00:45;20.60;99.90
24338;DHT22;12457;50.832;4.346;2023-08-12T07:03:11;20.50;99.90
24338;DHT22;12457;50.832;4.346;2023-08-12T07:05:36;20.50;99.90
24338;DHT22;12457;50.832;4.346;2023-08-12T07:08:02;20.50;99.90
24338;DHT22;12457;50.832;4.346;2023-08-12T07:10:28;20.60;99.90
24338;DHT22;12457;50.832;4.346;2023-08-12T07:12:54;20.50;99.90
24338;DHT22;12457;50.832;4.346;2023-08-12T07:15:19;20.30;99.90
24338;DHT22;12457;50.832;4.346;2023-08-12T07:17:45;20.20;99.90
24338;DHT22;12457;50.832;4.346;2023-08-12T07:20:11;20.10;99.90
24338;DHT22;12457;50.832;4.346;2023-08-12T07:22:36;20.00;99.90
24338;DHT22;12457;50.832;4.346;2023-08-12T07:25:02;20.00;99.90
24338;DHT22;12457;50.832;4.346;2023-08-12T07:27:28;19.90;99.90
24338;DHT22;12457;50.832;4.346;2023-08-12T07:29:54;19.90;99.90
24338;DHT22;12457;50.832;4.346;2023-08-12T07:32:20;19.80;99.90
24338;DHT22;12457;50.832;4.346;2023-08-12T07:34:46;19.60;99.90
24338;DHT22;12457;50.832;4.346;2023-08-12T07:37:12;19.70;99.90
24338;DHT22;12457;50.832;4.346;2023-08-12T07:39:37;19.50;99.90
24338;DHT22;12457;50.832;4.346;2023-08-12T07:42:03;19.40;99.90
24338;DHT22;12457;50.832;4.346;2023-08-12T07:44:29;19.40;99.90
24338;DHT22;12457;50.832;4.346;2023-08-12T07:46:55;19.50;99.90
24338;DHT22;12457;50.832;4.346;2023-08-12T07:49:31;19.60;99.90
24338;DHT22;12457;50.832;4.346;2023-08-12T07:51:57;19.60;99.90
24338;DHT22;12457;50.832;4.346;2023-08-12T07:54:23;19.80;99.90
24338;DHT22;12457;50.832;4.346;2023-08-12T07:56:48;19.80;99.90
24338;DHT22;12457;50.832;4.346;2023-08-12T07:59:14;19.80;99.90
24338;DHT22;12457;50.832;4.346;2023-08-12T08:01:41;19.80;99.90
24338;DHT22;12457;50.832;4.346;2023-08-12T08:04:07;19.90;99.90
24338;DHT22;12457;50.832;4.346;2023-08-12T08:06:33;19.90;99.90
24338;DHT22;12457;50.832;4.346;2023-08-12T08:08:58;19.90;99.90
24338;DHT22;12457;50.832;4.346;2023-08-12T08:11:26;20.00;99.90
24338;DHT22;12457;50.832;4.346;2023-08-12T08:13:51;20.00;99.90
24338;DHT22;12457;50.832;4.346;2023-08-12T08:16:17;20.00;99.90
24338;DHT22;12457;50.832;4.346;2023-08-12T08:18:55;20.00;99.90
24338;DHT22;12457;50.832;4.346;2023-08-12T08:21:21;20.10;99.90
24338;DHT22;12457;50.832;4.346;2023-08-12T08:23:46;20.10;99.90
24338;DHT22;12457;50.832;4.346;2023-08-12T08:26:12;20.20;99.90
24338;DHT22;12457;50.832;4.346;2023-08-12T08:28:39;20.30;99.90
24338;DHT22;12457;50.832;4.346;2023-08-12T08:31:04;20.40;99.90
24338;DHT22;12457;50.832;4.346;2023-08-12T08:33:30;20.40;99.90
24338;DHT22;12457;50.832;4.346;2023-08-12T08:35:57;20.40;99.90
24338;DHT22;12457;50.832;4.346;2023-08-12T08:38:22;20.60;99.90
24338;DHT22;12457;50.832;4.346;2023-08-12T08:40:51;20.80;99.90
24338;DHT22;12457;50.832;4.346;2023-08-12T08:43:20;20.60;99.90
24338;DHT22;12457;50.832;4.346;2023-08-12T08:45:52;20.50;99.90
24338;DHT22;12457;50.832;4.346;2023-08-12T08:48:20;20.40;99.90
24338;DHT22;12457;50.832;4.346;2023-08-12T08:50:47;20.40;99.90
24338;DHT22;12457;50.832;4.346;2023-08-12T08:53:14;20.40;99.90
24338;DHT22;12457;50.832;4.346;2023-08-12T08:55:41;20.50;99.90
24338;DHT22;12457;50.832;4.346;2023-08-12T08:58:07;20.60;99.90
24338;DHT22;12457;50.832;4.346;2023-08-12T09:00:33;20.80;99.90
24338;DHT22;12457;50.832;4.346;2023-08-12T09:02:59;21.10;99.90
24338;DHT22;12457;50.832;4.346;2023-08-12T09:05:26;21.50;99.90
24338;DHT22;12457;50.832;4.346;2023-08-12T09:07:54;21.70;99.90
24338;DHT22;12457;50.832;4.346;2023-08-12T09:10:21;21.80;99.90
24338;DHT22;12457;50.832;4.346;2023-08-12T09:12:49;21.80;99.90
24338;DHT22;12457;50.832;4.346;2023-08-12T09:15:16;21.80;99.90
24338;DHT22;12457;50.832;4.346;2023-08-12T09:17:43;22.00;99.90
24338;DHT22;12457;50.832;4.346;2023-08-12T09:20:09;22.20;99.90
24338;DHT22;12457;50.832;4.346;2023-08-12T09:22:38;22.50;99.90
24338;DHT22;12457;50.832;4.346;2023-08-12T09:25:04;22.70;99.90
24338;DHT22;12457;50.832;4.346;2023-08-12T09:27:34;22.70;99.90
24338;DHT22;12457;50.832;4.346;2023-08-12T09:30:03;22.50;99.90
24338;DHT22;12457;50.832;4.346;2023-08-12T09:32:30;22.50;99.90
24338;DHT22;12457;50.832;4.346;2023-08-12T09:35:05;22.40;99.90
24338;DHT22;12457;50.832;4.346;2023-08-12T09:37:32;22.30;99.90
24338;DHT22;12457;50.832;4.346;2023-08-12T09:39:57;22.40;99.90
24338;DHT22;12457;50.832;4.346;2023-08-12T09:42:27;22.60;99.90
24338;DHT22;12457;50.832;4.346;2023-08-12T09:44:53;23.00;99.90
24338;DHT22;12457;50.832;4.346;2023-08-12T09:47:19;22.80;99.90
24338;DHT22;12457;50.832;4.346;2023-08-12T09:49:45;22.50;99.90
24338;DHT22;12457;50.832;4.346;2023-08-12T09:52:12;22.40;99.90
24338;DHT22;12457;50.832;4.346;2023-08-12T09:54:38;22.30;99.90
24338;DHT22;12457;50.832;4.346;2023-08-12T09:57:05;22.50;99.90
24338;DHT22;12457;50.832;4.346;2023-08-12T09:59:34;22.50;99.90
24338;DHT22;12457;50.832;4.346;2023-08-12T10:02:01;22.60;99.90
24338;DHT22;12457;50.832;4.346;2023-08-12T10:04:39;22.70;99.90
24338;DHT22;12457;50.832;4.346;2023-08-12T10:07:09;22.80;99.90
24338;DHT22;12457;50.832;4.346;2023-08-12T10:09:36;22.90;99.90
24338;DHT22;12457;50.832;4.346;2023-08-12T10:12:03;23.00;99.90
24338;DHT22;12457;50.832;4.346;2023-08-12T10:14:29;23.20;99.90
24338;DHT22;12457;50.832;4.346;2023-08-12T10:16:55;23.30;99.90
24338;DHT22;12457;50.832;4.346;2023-08-12T10:19:22;23.40;99.90
24338;DHT22;12457;50.832;4.346;2023-08-12T10:21:55;23.40;99.90
24338;DHT22;12457;50.832;4.346;2023-08-12T10:24:23;23.60;99.90
24338;DHT22;12457;50.832;4.346;2023-08-12T10:26:51;23.90;99.90
24338;DHT22;12457;50.832;4.346;2023-08-12T10:29:18;24.00;99.90
24338;DHT22;12457;50.832;4.346;2023-08-12T10:31:46;23.90;99.90
24338;DHT22;12457;50.832;4.346;2023-08-12T10:34:25;23.90;99.90
24338;DHT22;12457;50.832;4.346;2023-08-12T10:36:58;23.80;99.90
24338;DHT22;12457;50.832;4.346;2023-08-12T10:39:27;24.00;99.90
24338;DHT22;12457;50.832;4.346;2023-08-12T10:41:56;24.00;99.90
24338;DHT22;12457;50.832;4.346;2023-08-12T10:44:39;23.80;99.90
24338;DHT22;12457;50.832;4.346;2023-08-12T10:47:09;23.60;99.90
24338;DHT22;12457;50.832;4.346;2023-08-12T10:49:47;23.50;99.90
24338;DHT22;12457;50.832;4.346;2023-08-12T10:52:30;23.30;99.90
24338;DHT22;12457;50.832;4.346;2023-08-12T10:55:31;23.10;99.90
24338;DHT22;12457;50.832;4.346;2023-08-12T10:58:08;23.00;99.90
24338;DHT22;12457;50.832;4.346;2023-08-12T11:00:35;23.00;99.90
24338;DHT22;12457;50.832;4.346;2023-08-12T11:03:05;22.90;99.90
24338;DHT22;12457;50.832;4.346;2023-08-12T11:05:37;22.90;99.90
24338;DHT22;12457;50.832;4.346;2023-08-12T11:08:05;22.90;99.90
24338;DHT22;12457;50.832;4.346;2023-08-12T11:10:34;23.00;99.90
24338;DHT22;12457;50.832;4.346;2023-08-12T11:13:01;23.00;99.90
24338;DHT22;12457;50.832;4.346;2023-08-12T11:15:37;23.00;99.90
24338;DHT22;12457;50.832;4.346;2023-08-12T11:18:05;23.10;99.90
24338;DHT22;12457;50.832;4.346;2023-08-12T11:20:31;23.20;99.90
24338;DHT22;12457;50.832;4.346;2023-08-12T11:22:57;23.50;99.90
24338;DHT22;12457;50.832;4.346;2023-08-12T11:25:25;23.60;99.90
24338;DHT22;12457;50.832;4.346;2023-08-12T11:27:51;23.60;99.90
24338;DHT22;12457;50.832;4.346;2023-08-12T11:30:18;23.70;99.90
24338;DHT22;12457;50.832;4.346;2023-08-12T11:32:46;23.60;99.90
24338;DHT22;12457;50.832;4.346;2023-08-12T11:35:14;23.60;99.90
24338;DHT22;12457;50.832;4.346;2023-08-12T11:37:43;23.60;99.90
24338;DHT22;12457;50.832;4.346;2023-08-12T11:40:11;23.60;99.90
24338;DHT22;12457;50.832;4.346;2023-08-12T11:42:41;23.70;99.90
24338;DHT22;12457;50.832;4.346;2023-08-12T11:45:09;23.80;99.90
24338;DHT22;12457;50.832;4.346;2023-08-12T11:47:35;23.90;99.90
24338;DHT22;12457;50.832;4.346;2023-08-12T11:50:09;24.00;99.90
24338;DHT22;12457;50.832;4.346;2023-08-12T11:52:36;24.00;99.90
24338;DHT22;12457;50.832;4.346;2023-08-12T11:55:07;23.80;99.90
24338;DHT22;12457;50.832;4.346;2023-08-12T11:57:34;23.70;99.90
24338;DHT22;12457;50.832;4.346;2023-08-12T12:00:04;23.50;99.90
24338;DHT22;12457;50.832;4.346;2023-08-12T12:02:39;23.40;99.90
24338;DHT22;12457;50.832;4.346;2023-08-12T12:05:10;23.30;99.90
24338;DHT22;12457;50.832;4.346;2023-08-12T12:07:36;23.20;99.90
24338;DHT22;12457;50.832;4.346;2023-08-12T12:10:02;23.10;99.90
24338;DHT22;12457;50.832;4.346;2023-08-12T12:12:28;23.20;99.90
24338;DHT22;12457;50.832;4.346;2023-08-12T12:14:55;23.30;99.90
24338;DHT22;12457;50.832;4.346;2023-08-12T12:17:24;23.20;99.90
24338;DHT22;12457;50.832;4.346;2023-08-12T12:19:57;23.10;99.90
24338;DHT22;12457;50.832;4.346;2023-08-12T12:22:36;23.00;99.90
24338;DHT22;12457;50.832;4.346;2023-08-12T12:25:11;23.00;99.90
24338;DHT22;12457;50.832;4.346;2023-08-12T12:27:38;22.90;99.90
24338;DHT22;12457;50.832;4.346;2023-08-12T12:30:07;22.80;99.90
24338;DHT22;12457;50.832;4.346;2023-08-12T12:32:33;22.90;99.90
24338;DHT22;12457;50.832;4.346;2023-08-12T12:34:59;23.00;99.90
24338;DHT22;12457;50.832;4.346;2023-08-12T12:37:25;23.30;99.90
24338;DHT22;12457;50.832;4.346;2023-08-12T12:39:51;23.60;99.90
24338;DHT22;12457;50.832;4.346;2023-08-12T12:42:17;23.70;99.90
24338;DHT22;12457;50.832;4.346;2023-08-12T12:44:42;23.90;99.90
24338;DHT22;12457;50.832;4.346;2023-08-12T12:47:08;24.00;99.90
24338;DHT22;12457;50.832;4.346;2023-08-12T12:49:36;23.80;99.90
24338;DHT22;12457;50.832;4.346;2023-08-12T12:52:02;23.80;99.90
24338;DHT22;12457;50.832;4.346;2023-08-12T12:54:27;24.00;99.90
24338;DHT22;12457;50.832;4.346;2023-08-12T12:56:55;24.10;99.90
24338;DHT22;12457;50.832;4.346;2023-08-12T12:59:20;24.00;99.90
24338;DHT22;12457;50.832;4.346;2023-08-12T13:01:46;24.10;99.90
24338;DHT22;12457;50.832;4.346;2023-08-12T13:04:12;24.20;99.90
24338;DHT22;12457;50.832;4.346;2023-08-12T13:06:38;24.20;99.90
24338;DHT22;12457;50.832;4.346;2023-08-12T13:09:04;24.40;99.90
24338;DHT22;12457;50.832;4.346;2023-08-12T13:11:32;24.50;99.90
24338;DHT22;12457;50.832;4.346;2023-08-12T13:14:02;24.80;99.90
24338;DHT22;12457;50.832;4.346;2023-08-12T13:16:28;24.90;99.90
24338;DHT22;12457;50.832;4.346;2023-08-12T13:18:54;25.00;99.90
24338;DHT22;12457;50.832;4.346;2023-08-12T13:21:26;25.10;99.90
24338;DHT22;12457;50.832;4.346;2023-08-12T13:23:52;25.20;99.90
24338;DHT22;12457;50.832;4.346;2023-08-12T13:26:20;25.10;99.90
24338;DHT22;12457;50.832;4.346;2023-08-12T13:28:47;25.20;99.90
24338;DHT22;12457;50.832;4.346;2023-08-12T13:31:13;25.10;99.90
24338;DHT22;12457;50.832;4.346;2023-08-12T13:33:39;25.00;99.90
24338;DHT22;12457;50.832;4.346;2023-08-12T13:36:15;25.00;99.90
24338;DHT22;12457;50.832;4.346;2023-08-12T13:38:41;25.00;99.90
24338;DHT22;12457;50.832;4.346;2023-08-12T13:41:07;25.00;99.90
24338;DHT22;12457;50.832;4.346;2023-08-12T13:43:33;25.20;99.90
24338;DHT22;12457;50.832;4.346;2023-08-12T13:46:00;25.10;99.90
24338;DHT22;12457;50.832;4.346;2023-08-12T13:48:26;25.30;99.90
24338;DHT22;12457;50.832;4.346;2023-08-12T13:50:52;25.50;99.90
24338;DHT22;12457;50.832;4.346;2023-08-12T13:53:36;25.60;99.90
24338;DHT22;12457;50.832;4.346;2023-08-12T13:56:01;25.60;99.90
24338;DHT22;12457;50.832;4.346;2023-08-12T13:58:27;25.50;99.90
24338;DHT22;12457;50.832;4.346;2023-08-12T14:00:53;25.40;99.90
24338;DHT22;12457;50.832;4.346;2023-08-12T14:03:20;25.40;99.90
24338;DHT22;12457;50.832;4.346;2023-08-12T14:05:45;25.40;99.90
24338;DHT22;12457;50.832;4.346;2023-08-12T14:08:12;25.50;99.90
24338;DHT22;12457;50.832;4.346;2023-08-12T14:10:38;25.70;99.90
24338;DHT22;12457;50.832;4.346;2023-08-12T14:13:04;25.70;99.90
24338;DHT22;12457;50.832;4.346;2023-08-12T14:15:29;25.70;99.90
24338;DHT22;12457;50.832;4.346;2023-08-12T14:17:55;25.80;99.90
24338;DHT22;12457;50.832;4.346;2023-08-12T14:20:21;25.90;99.90
24338;DHT22;12457;50.832;4.346;2023-08-12T14:22:46;25.80;99.90
24338;DHT22;12457;50.832;4.346;2023-08-12T14:25:13;25.70;99.90
24338;DHT22;12457;50.832;4.346;2023-08-12T14:27:39;25.70;99.90
24338;DHT22;12457;50.832;4.346;2023-08-12T14:30:06;25.50;99.90
24338;DHT22;12457;50.832;4.346;2023-08-12T14:32:31;25.50;99.90
24338;DHT22;12457;50.832;4.346;2023-08-12T14:34:57;25.40;99.90
24338;DHT22;12457;50.832;4.346;2023-08-12T14:37:23;25.40;99.90
24338;DHT22;12457;50.832;4.346;2023-08-12T14:39:48;25.00;99.90
24338;DHT22;12457;50.832;4.346;2023-08-12T14:42:14;25.00;99.90
24338;DHT22;12457;50.832;4.346;2023-08-12T14:44:40;25.00;99.90
24338;DHT22;12457;50.832;4.346;2023-08-12T14:47:06;24.70;99.90
24338;DHT22;12457;50.832;4.346;2023-08-12T14:49:31;24.70;99.90
24338;DHT22;12457;50.832;4.346;2023-08-12T14:51:57;24.50;99.90
24338;DHT22;12457;50.832;4.346;2023-08-12T14:54:23;24.50;99.90
24338;DHT22;12457;50.832;4.346;2023-08-12T14:56:48;24.70;99.90
24338;DHT22;12457;50.832;4.346;2023-08-12T14:59:14;24.50;99.90
24338;DHT22;12457;50.832;4.346;2023-08-12T15:01:40;24.60;99.90
24338;DHT22;12457;50.832;4.346;2023-08-12T15:04:06;24.60;99.90
24338;DHT22;12457;50.832;4.346;2023-08-12T15:06:31;24.70;99.90
24338;DHT22;12457;50.832;4.346;2023-08-12T15:08:57;24.80;99.90
24338;DHT22;12457;50.832;4.346;2023-08-12T15:11:23;24.90;99.90
24338;DHT22;12457;50.832;4.346;2023-08-12T15:13:49;25.00;99.90
24338;DHT22;12457;50.832;4.346;2023-08-12T15:16:15;24.90;99.90
24338;DHT22;12457;50.832;4.346;2023-08-12T15:18:40;25.00;99.90
24338;DHT22;12457;50.832;4.346;2023-08-12T15:21:08;25.00;99.90
24338;DHT22;12457;50.832;4.346;2023-08-12T15:23:34;25.00;99.90
24338;DHT22;12457;50.832;4.346;2023-08-12T15:26:01;25.10;99.90
24338;DHT22;12457;50.832;4.346;2023-08-12T15:28:28;25.20;99.90
24338;DHT22;12457;50.832;4.346;2023-08-12T15:30:54;25.30;99.90